Time;durP1;ratioP1;P1;durP2;ratioP2;P2;SDS_P1;SDS_P2;PMS_P1;PMS_P2;Temp;Humidity;BMP_temperature;BMP_pressure;BME280_temperature;BME280_humidity;BME280_pressure;Samples;Min_cycle;Max_cycle;Signal;HPM_P1;HPM_P2
2021/05/07 00:01:32;;;;;;;4.80;2.30;;;4.90;99.90;;;;;;5118387;27;20204;-50
2021/05/07 00:03:58;;;;;;;9.03;1.93;;;4.90;99.90;;;;;;5125619;27;20257;-52
2021/05/07 00:06:25;;;;;;;5.00;1.93;;;4.90;99.90;;;;;;5136084;27;20204;-59
2021/05/07 00:08:51;;;;;;;4.83;2.20;;;4.90;99.90;;;;;;5144740;27;20265;-53
2021/05/07 00:11:18;;;;;;;2.90;2.30;;;4.90;99.90;;;;;;5103758;27;20284;-59
2021/05/07 00:13:46;;;;;;;4.50;2.50;;;4.80;99.90;;;;;;5102237;28;20895;-51
2021/05/07 00:16:13;;;;;;;4.83;2.43;;;4.80;99.90;;;;;;5115290;27;20203;-59
2021/05/07 00:18:39;;;;;;;6.47;2.10;;;4.70;99.90;;;;;;5124022;27;20258;-57
2021/05/07 00:21:06;;;;;;;2.93;2.03;;;4.70;99.90;;;;;;5124072;27;20676;-53
2021/05/07 00:23:33;;;;;;;3.03;2.07;;;4.70;99.90;;;;;;5120276;27;20204;-52
2021/05/07 00:25:59;;;;;;;4.03;2.50;;;4.70;99.90;;;;;;5118474;27;20254;-50
2021/05/07 00:28:26;;;;;;;4.70;2.23;;;4.80;99.90;;;;;;5118734;27;20220;-58
2021/05/07 00:30:52;;;;;;;4.23;2.63;;;4.80;99.90;;;;;;5119560;27;20192;-54
2021/05/07 00:33:18;;;;;;;10.43;2.70;;;4.80;99.90;;;;;;5122870;27;20557;-58
2021/05/07 00:35:45;;;;;;;3.30;2.30;;;4.80;99.90;;;;;;5134776;27;20871;-54
2021/05/07 00:38:11;;;;;;;2.70;2.47;;;4.90;99.90;;;;;;5143391;27;20191;-58
2021/05/07 00:40:37;;;;;;;4.10;2.20;;;4.80;99.90;;;;;;5131098;27;20214;-51
2021/05/07 00:43:04;;;;;;;4.20;2.43;;;4.80;99.90;;;;;;5122128;28;20216;-52
2021/05/07 00:45:33;;;;;;;3.47;2.33;;;4.90;99.90;;;;;;5110018;27;20286;-51
2021/05/07 00:48:01;;;;;;;3.40;2.30;;;4.80;99.90;;;;;;5128756;27;20209;-55
2021/05/07 00:50:31;;;;;;;5.23;2.30;;;4.80;99.90;;;;;;5122454;27;20949;-53
2021/05/07 00:52:59;;;;;;;3.93;2.33;;;4.70;99.90;;;;;;5143980;27;20220;-54
2021/05/07 00:55:26;;;;;;;2.77;2.30;;;4.70;99.90;;;;;;5133647;27;20271;-58
2021/05/07 00:57:53;;;;;;;4.60;2.57;;;4.80;99.90;;;;;;5102208;28;20190;-52
2021/05/07 01:00:22;;;;;;;4.80;2.40;;;4.80;99.90;;;;;;5099997;28;20193;-58
2021/05/07 01:02:49;;;;;;;5.10;2.63;;;4.90;99.90;;;;;;5101646;27;20300;-50
2021/05/07 01:05:15;;;;;;;2.60;2.13;;;4.80;99.90;;;;;;5133911;27;20214;-59
2021/05/07 01:07:42;;;;;;;5.97;2.70;;;4.80;99.90;;;;;;5141323;27;20215;-51
2021/05/07 01:10:10;;;;;;;4.60;2.30;;;4.80;99.90;;;;;;5145975;27;20196;-61
2021/05/07 01:12:37;;;;;;;3.07;2.30;;;4.90;99.90;;;;;;5117457;27;20270;-56
2021/05/07 01:15:08;;;;;;;4.30;2.47;;;4.90;99.90;;;;;;5139787;27;20197;-51
2021/05/07 01:17:37;;;;;;;3.13;2.03;;;4.90;99.90;;;;;;5109981;27;20200;-54
2021/05/07 01:20:08;;;;;;;3.27;2.00;;;4.90;99.90;;;;;;5140411;27;20272;-59
2021/05/07 01:22:36;;;;;;;7.97;2.50;;;4.90;99.90;;;;;;5132389;27;20212;-52
2021/05/07 01:25:03;;;;;;;9.63;2.67;;;4.90;99.90;;;;;;5145283;27;20196;-60
2021/05/07 01:27:31;;;;;;;4.77;2.60;;;4.80;99.90;;;;;;5134469;27;20236;-54
2021/05/07 01:29:57;;;;;;;6.80;2.57;;;4.80;99.90;;;;;;5123311;27;20204;-57
2021/05/07 01:32:23;;;;;;;3.00;2.00;;;4.80;99.90;;;;;;5124633;27;20200;-53
2021/05/07 01:34:49;;;;;;;3.47;2.43;;;4.80;99.90;;;;;;5120113;27;20219;-54
2021/05/07 01:37:16;;;;;;;5.17;2.37;;;4.80;99.90;;;;;;5125560;27;20192;-54
2021/05/07 01:39:42;;;;;;;5.30;3.10;;;4.80;99.90;;;;;;5133973;27;20530;-51
2021/05/07 01:42:09;;;;;;;5.57;2.33;;;4.80;99.90;;;;;;5143377;27;20606;-60
2021/05/07 01:44:35;;;;;;;4.37;2.40;;;4.80;99.90;;;;;;5113893;27;20205;-51
2021/05/07 01:47:01;;;;;;;3.33;2.60;;;4.90;99.90;;;;;;5102434;28;20237;-59
2021/05/07 01:49:28;;;;;;;6.23;2.70;;;4.90;99.90;;;;;;5110275;27;20197;-54
2021/05/07 01:51:54;;;;;;;3.90;2.80;;;4.90;99.90;;;;;;5134334;27;20189;-60
2021/05/07 01:54:21;;;;;;;4.80;2.50;;;4.90;99.90;;;;;;5123400;27;20236;-50
2021/05/07 01:56:47;;;;;;;5.17;2.83;;;4.90;99.90;;;;;;5126860;27;20706;-51
2021/05/07 01:59:13;;;;;;;4.33;2.93;;;4.80;99.90;;;;;;5116248;27;20180;-51
2021/05/07 02:01:41;;;;;;;7.53;2.80;;;4.80;99.90;;;;;;5126715;27;20192;-52
2021/05/07 02:04:08;;;;;;;5.07;2.07;;;4.80;99.90;;;;;;5112503;27;20212;-60
2021/05/07 02:06:41;;;;;;;2.97;2.23;;;4.90;99.90;;;;;;5131853;27;20689;-55
2021/05/07 02:09:07;;;;;;;3.77;2.20;;;4.90;99.90;;;;;;5141697;27;20196;-58
2021/05/07 02:11:34;;;;;;;5.07;2.43;;;4.90;99.90;;;;;;5147024;27;20237;-54
2021/05/07 02:14:05;;;;;;;4.47;2.17;;;5.00;99.90;;;;;;5128195;27;20227;-60
2021/05/07 02:16:32;;;;;;;6.27;2.00;;;5.00;99.90;;;;;;5134335;27;20294;-53
2021/05/07 02:19:03;;;;;;;4.53;2.50;;;5.00;99.90;;;;;;5133499;27;20207;-62
2021/05/07 02:21:30;;;;;;;7.33;2.53;;;5.00;99.90;;;;;;5133933;27;20279;-55
2021/05/07 02:23:58;;;;;;;4.60;2.73;;;5.10;99.90;;;;;;5125985;27;20219;-59
2021/05/07 02:26:24;;;;;;;14.10;3.40;;;5.10;99.90;;;;;;5138178;27;20184;-53
2021/05/07 02:28:57;;;;;;;7.13;3.10;;;5.10;99.90;;;;;;5145334;27;20268;-58
2021/05/07 02:31:25;;;;;;;3.67;2.60;;;5.10;99.90;;;;;;5132866;27;20298;-55
2021/05/07 02:33:51;;;;;;;3.20;2.67;;;5.10;99.90;;;;;;5123984;27;20216;-61
2021/05/07 02:36:18;;;;;;;3.43;2.30;;;5.20;99.90;;;;;;5121495;27;20227;-54
2021/05/07 02:38:44;;;;;;;6.97;2.60;;;5.10;99.90;;;;;;5127508;27;20665;-61
2021/05/07 02:41:10;;;;;;;6.17;2.90;;;5.10;99.90;;;;;;5124699;27;20185;-50
2021/05/07 02:43:39;;;;;;;5.50;3.03;;;5.20;99.90;;;;;;5142226;27;20212;-51
2021/05/07 02:46:09;;;;;;;7.20;2.77;;;5.20;99.90;;;;;;5133760;27;20925;-58
2021/05/07 02:48:35;;;;;;;2.70;2.40;;;5.20;99.90;;;;;;5102758;27;20217;-57
2021/05/07 02:51:01;;;;;;;6.60;2.93;;;5.20;99.90;;;;;;5123125;27;20216;-60
2021/05/07 02:53:27;;;;;;;6.17;2.80;;;5.20;99.90;;;;;;5134648;27;20207;-54
2021/05/07 02:55:55;;;;;;;5.00;2.43;;;5.20;99.90;;;;;;5145385;27;20192;-59
2021/05/07 02:58:21;;;;;;;4.30;2.03;;;5.20;99.90;;;;;;5143064;27;20184;-54
2021/05/07 03:00:47;;;;;;;7.10;2.20;;;5.20;99.90;;;;;;5146220;27;20557;-52
2021/05/07 03:03:14;;;;;;;6.50;2.20;;;5.20;99.90;;;;;;5133895;27;20979;-52
2021/05/07 03:05:40;;;;;;;4.60;2.87;;;5.20;99.90;;;;;;5131836;27;20200;-57
2021/05/07 03:08:06;;;;;;;6.37;3.00;;;5.20;99.90;;;;;;5130098;27;20212;-60
2021/05/07 03:10:32;;;;;;;4.40;2.90;;;5.20;99.90;;;;;;5124291;27;20268;-51
2021/05/07 03:12:58;;;;;;;9.27;2.97;;;5.20;99.90;;;;;;5122949;27;20257;-60
2021/05/07 03:15:25;;;;;;;5.50;2.53;;;5.20;99.90;;;;;;5123103;27;20903;-50
2021/05/07 03:17:53;;;;;;;3.57;2.70;;;5.20;99.90;;;;;;5102936;27;20209;-57
2021/05/07 03:20:20;;;;;;;5.40;2.10;;;5.20;99.90;;;;;;5114527;27;20576;-56
2021/05/07 03:22:47;;;;;;;6.60;2.53;;;5.20;99.90;;;;;;5135106;27;20215;-51
2021/05/07 03:25:14;;;;;;;4.87;2.40;;;5.20;99.90;;;;;;5107177;27;20201;-52
2021/05/07 03:27:40;;;;;;;5.93;2.47;;;5.20;99.90;;;;;;5116822;27;20328;-59
2021/05/07 03:30:07;;;;;;;6.67;2.50;;;5.20;99.90;;;;;;5123808;27;20212;-53
2021/05/07 03:32:33;;;;;;;11.00;2.90;;;5.20;99.90;;;;;;5115212;27;20674;-58
2021/05/07 03:34:59;;;;;;;4.43;2.43;;;5.20;99.90;;;;;;5122604;27;20268;-52
2021/05/07 03:37:26;;;;;;;4.43;2.20;;;5.20;99.90;;;;;;5120270;27;20204;-57
2021/05/07 03:39:53;;;;;;;3.13;2.53;;;5.20;99.90;;;;;;5130742;27;21013;-51
2021/05/07 03:42:19;;;;;;;6.03;2.57;;;5.20;99.90;;;;;;5135819;27;20198;-49
2021/05/07 03:44:45;;;;;;;2.40;1.97;;;5.20;99.90;;;;;;5141393;27;20184;-56
2021/05/07 03:47:11;;;;;;;2.83;1.90;;;5.20;99.90;;;;;;5132686;27;20725;-53
2021/05/07 03:49:37;;;;;;;3.13;2.07;;;5.20;99.90;;;;;;5123429;27;20200;-58
2021/05/07 03:52:04;;;;;;;5.00;2.20;;;5.20;99.90;;;;;;5122333;27;20196;-53
2021/05/07 03:54:31;;;;;;;7.43;2.30;;;5.20;99.90;;;;;;5132247;27;20247;-60
2021/05/07 03:56:57;;;;;;;3.93;2.53;;;5.20;99.90;;;;;;5133987;27;20188;-51
2021/05/07 03:59:23;;;;;;;7.37;1.80;;;5.20;99.90;;;;;;5144566;27;20661;-57
2021/05/07 04:01:49;;;;;;;3.63;2.20;;;5.20;99.90;;;;;;5109872;27;20189;-51
2021/05/07 04:04:15;;;;;;;2.73;2.23;;;5.20;99.90;;;;;;5105649;27;20669;-52
2021/05/07 04:06:42;;;;;;;5.40;2.37;;;5.20;99.90;;;;;;5091208;27;20204;-59
2021/05/07 04:09:11;;;;;;;3.90;2.10;;;5.20;99.90;;;;;;5124575;27;20271;-52
2021/05/07 04:11:49;;;;;;;4.00;2.70;;;5.20;99.90;;;;;;5126392;27;20551;-57
2021/05/07 04:14:15;;;;;;;4.73;3.00;;;5.20;99.90;;;;;;5145007;27;20692;-51
2021/05/07 04:16:41;;;;;;;8.73;3.60;;;5.30;99.90;;;;;;5140908;27;20180;-57
2021/05/07 04:19:07;;;;;;;6.07;2.90;;;5.30;99.90;;;;;;5129910;27;20296;-53
2021/05/07 04:21:33;;;;;;;2.93;2.30;;;5.30;99.90;;;;;;5101050;28;20741;-60
2021/05/07 04:24:00;;;;;;;4.17;1.90;;;5.30;99.90;;;;;;5107682;27;20212;-53
2021/05/07 04:26:26;;;;;;;3.23;1.90;;;5.30;99.90;;;;;;5135129;27;20200;-59
2021/05/07 04:28:53;;;;;;;2.60;1.73;;;5.30;99.90;;;;;;5120968;27;20224;-55
2021/05/07 04:31:19;;;;;;;3.37;2.20;;;5.30;99.90;;;;;;5118032;27;20192;-50
2021/05/07 04:33:45;;;;;;;7.07;2.13;;;5.30;99.90;;;;;;5121080;27;20934;-53
2021/05/07 04:36:11;;;;;;;10.40;2.63;;;5.30;99.90;;;;;;5122337;28;20197;-51
2021/05/07 04:38:37;;;;;;;4.77;2.10;;;5.30;99.90;;;;;;5116815;27;20616;-58
2021/05/07 04:41:03;;;;;;;4.13;2.50;;;5.30;99.90;;;;;;5123118;27;20279;-52
2021/05/07 04:43:30;;;;;;;3.23;2.37;;;5.30;99.90;;;;;;5141751;27;20615;-59
2021/05/07 04:45:57;;;;;;;2.77;2.27;;;5.30;99.90;;;;;;5146190;27;20263;-50
2021/05/07 04:48:23;;;;;;;3.10;1.67;;;5.20;99.90;;;;;;5135360;27;20205;-59
2021/05/07 04:50:49;;;;;;;2.97;2.07;;;5.20;99.90;;;;;;5112764;27;20203;-56
2021/05/07 04:53:15;;;;;;;4.00;1.90;;;5.20;99.90;;;;;;5127491;27;20213;-56
2021/05/07 04:55:41;;;;;;;4.10;2.67;;;5.20;99.90;;;;;;5118700;27;20203;-58
2021/05/07 04:58:07;;;;;;;3.37;2.70;;;5.20;99.90;;;;;;5141075;27;20629;-55
2021/05/07 05:00:33;;;;;;;5.17;2.73;;;5.20;99.90;;;;;;5145910;27;20198;-57
2021/05/07 05:03:00;;;;;;;4.23;3.10;;;5.20;99.90;;;;;;5146008;27;20204;-52
2021/05/07 05:05:27;;;;;;;6.40;3.27;;;5.20;99.90;;;;;;5146975;27;20283;-59
2021/05/07 05:07:55;;;;;;;5.03;3.47;;;5.20;99.90;;;;;;5137538;27;20220;-52
2021/05/07 05:10:21;;;;;;;3.93;2.80;;;5.20;99.90;;;;;;5133863;27;20200;-52
2021/05/07 05:12:48;;;;;;;4.13;2.70;;;5.20;99.90;;;;;;5133384;27;20776;-54
2021/05/07 05:15:15;;;;;;;3.63;1.93;;;5.20;99.90;;;;;;5126791;27;20188;-53
2021/05/07 05:17:41;;;;;;;2.33;1.70;;;5.20;99.90;;;;;;5134915;27;20249;-58
2021/05/07 05:20:09;;;;;;;2.93;1.83;;;5.10;99.90;;;;;;5147075;27;20195;-56
2021/05/07 05:22:37;;;;;;;2.07;1.53;;;5.10;99.90;;;;;;5121052;27;20228;-59
2021/05/07 05:25:05;;;;;;;5.10;1.80;;;5.10;99.90;;;;;;5126347;27;20197;-50
2021/05/07 05:27:31;;;;;;;2.97;1.70;;;5.10;99.90;;;;;;5122016;27;20284;-58
2021/05/07 05:29:58;;;;;;;2.23;1.50;;;5.10;99.90;;;;;;5127197;27;20880;-51
2021/05/07 05:32:24;;;;;;;3.53;1.47;;;5.10;99.90;;;;;;5126484;27;20212;-59
2021/05/07 05:34:51;;;;;;;4.63;1.63;;;5.10;99.90;;;;;;5114702;27;20274;-54
2021/05/07 05:37:18;;;;;;;3.53;1.80;;;5.10;99.90;;;;;;5116607;27;20275;-53
2021/05/07 05:39:44;;;;;;;2.00;1.70;;;5.10;99.90;;;;;;5108881;27;20249;-53
2021/05/07 05:42:10;;;;;;;4.73;1.43;;;5.10;99.90;;;;;;5105433;27;20227;-58
2021/05/07 05:44:37;;;;;;;2.50;1.10;;;5.10;99.90;;;;;;5129293;27;20343;-57
2021/05/07 05:47:03;;;;;;;1.43;1.30;;;5.20;99.90;;;;;;5118805;27;20292;-59
2021/05/07 05:49:29;;;;;;;2.70;1.30;;;5.20;99.90;;;;;;5123931;27;20245;-52
2021/05/07 05:51:55;;;;;;;1.30;1.00;;;5.30;99.90;;;;;;5119593;27;20200;-57
2021/05/07 05:54:22;;;;;;;2.30;1.60;;;5.30;99.90;;;;;;5109191;27;20243;-52
2021/05/07 05:56:48;;;;;;;2.03;1.50;;;5.30;99.90;;;;;;5117860;27;20209;-50
2021/05/07 05:59:14;;;;;;;3.07;1.47;;;5.30;99.90;;;;;;5134243;27;20188;-54
2021/05/07 06:01:40;;;;;;;2.27;1.27;;;5.30;99.90;;;;;;5146694;27;20191;-55
2021/05/07 06:04:06;;;;;;;3.30;1.20;;;5.30;99.90;;;;;;5143905;27;20296;-57
2021/05/07 06:06:33;;;;;;;5.13;1.67;;;5.30;99.90;;;;;;5129599;27;20197;-55
2021/05/07 06:08:59;;;;;;;4.97;1.53;;;5.40;99.90;;;;;;5119820;27;20220;-57
2021/05/07 06:11:26;;;;;;;2.47;1.27;;;5.50;99.90;;;;;;5110399;27;20222;-50
2021/05/07 06:13:52;;;;;;;2.03;1.60;;;5.50;99.90;;;;;;5133461;27;20298;-51
2021/05/07 06:16:18;;;;;;;2.53;1.33;;;5.50;99.90;;;;;;5131083;27;20177;-54
2021/05/07 06:18:44;;;;;;;0.90;0.90;;;5.60;99.90;;;;;;5126027;27;20197;-51
2021/05/07 06:21:10;;;;;;;3.53;1.60;;;5.60;99.90;;;;;;5139639;27;20196;-60
2021/05/07 06:23:36;;;;;;;3.37;1.20;;;5.60;99.90;;;;;;5133444;27;20217;-56
2021/05/07 06:26:03;;;;;;;2.17;1.70;;;5.70;99.90;;;;;;5123273;27;20271;-59
2021/05/07 06:28:30;;;;;;;2.10;0.90;;;5.70;99.90;;;;;;5106383;27;20223;-56
2021/05/07 06:30:58;;;;;;;1.70;1.33;;;5.70;99.90;;;;;;5117710;27;20573;-58
2021/05/07 06:33:25;;;;;;;1.83;1.57;;;5.70;99.90;;;;;;5125351;27;20212;-54
2021/05/07 06:35:51;;;;;;;2.83;1.30;;;5.80;99.90;;;;;;5126748;27;20197;-53
2021/05/07 06:38:17;;;;;;;1.70;1.30;;;5.90;99.90;;;;;;5116093;27;20822;-51
2021/05/07 06:40:44;;;;;;;4.53;1.80;;;5.90;99.90;;;;;;5131240;27;20214;-53
2021/05/07 06:43:10;;;;;;;2.90;1.80;;;6.00;99.90;;;;;;5116697;27;20220;-59
2021/05/07 06:45:38;;;;;;;3.37;2.20;;;6.00;99.90;;;;;;5134599;27;20205;-53
2021/05/07 06:48:05;;;;;;;2.23;1.37;;;6.10;99.90;;;;;;5142084;27;20211;-50
2021/05/07 06:50:31;;;;;;;1.50;1.40;;;6.20;99.90;;;;;;5123782;27;20912;-49
2021/05/07 06:52:57;;;;;;;4.23;1.67;;;6.30;99.90;;;;;;5122929;27;20222;-56
2021/05/07 06:55:24;;;;;;;2.03;1.60;;;6.40;99.90;;;;;;5105580;27;20204;-50
2021/05/07 06:57:50;;;;;;;3.57;1.90;;;6.40;99.90;;;;;;5108551;27;20198;-51
2021/05/07 07:00:18;;;;;;;2.20;1.70;;;6.50;99.90;;;;;;5118019;27;20214;-51
2021/05/07 07:02:45;;;;;;;3.20;1.83;;;6.60;99.90;;;;;;5142593;27;20211;-48
2021/05/07 07:05:12;;;;;;;1.80;1.40;;;6.70;99.90;;;;;;5141718;27;20200;-56
2021/05/07 07:07:38;;;;;;;2.57;1.30;;;6.80;99.90;;;;;;5143991;27;20212;-55
2021/05/07 07:10:05;;;;;;;2.37;1.20;;;6.90;99.90;;;;;;5131953;27;20481;-48
2021/05/07 07:12:32;;;;;;;3.40;1.40;;;6.90;99.90;;;;;;5104281;28;20238;-51
2021/05/07 07:14:58;;;;;;;2.23;1.13;;;6.90;99.90;;;;;;5103511;27;20280;-49
2021/05/07 07:17:24;;;;;;;1.30;1.20;;;7.00;99.90;;;;;;5133863;27;20189;-50
2021/05/07 07:19:51;;;;;;;1.93;1.43;;;7.10;99.90;;;;;;5117944;27;20523;-56
2021/05/07 07:22:19;;;;;;;3.03;1.43;;;7.20;99.90;;;;;;5126835;27;20685;-53
2021/05/07 07:24:46;;;;;;;2.37;1.30;;;7.20;99.90;;;;;;5123163;27;20213;-47
2021/05/07 07:27:12;;;;;;;3.07;1.30;;;7.20;99.90;;;;;;5114480;27;20280;-55
2021/05/07 07:29:38;;;;;;;1.40;1.20;;;7.20;99.90;;;;;;5101308;27;20840;-48
2021/05/07 07:32:05;;;;;;;2.23;1.40;;;7.30;99.90;;;;;;5135645;27;20301;-48
2021/05/07 07:34:31;;;;;;;2.20;1.17;;;7.40;99.90;;;;;;5141591;27;20184;-47
2021/05/07 07:36:58;;;;;;;1.93;1.30;;;7.50;99.90;;;;;;5144818;27;20200;-47
2021/05/07 07:39:24;;;;;;;2.40;1.30;;;7.50;99.90;;;;;;5128954;27;20189;-55
2021/05/07 07:41:50;;;;;;;1.37;1.00;;;7.60;99.90;;;;;;5117384;27;20208;-50
2021/05/07 07:44:17;;;;;;;2.07;1.10;;;7.60;99.90;;;;;;5120754;27;20216;-54
2021/05/07 07:46:43;;;;;;;2.47;1.07;;;7.50;99.90;;;;;;5106585;27;20220;-47
2021/05/07 07:49:10;;;;;;;2.20;1.13;;;7.50;99.90;;;;;;5130279;27;20216;-54
2021/05/07 07:51:36;;;;;;;3.10;1.00;;;7.50;99.90;;;;;;5121628;27;20176;-50
2021/05/07 07:54:06;;;;;;;3.73;1.30;;;7.50;99.90;;;;;;5123966;27;20249;-49
2021/05/07 07:56:32;;;;;;;1.33;1.20;;;7.50;99.90;;;;;;5114821;27;22306;-48
2021/05/07 07:58:58;;;;;;;1.17;1.03;;;7.40;99.90;;;;;;5123764;27;20213;-48
2021/05/07 08:01:24;;;;;;;1.10;1.00;;;7.50;99.90;;;;;;5090809;27;20208;-56
2021/05/07 08:03:50;;;;;;;0.90;0.90;;;7.40;99.90;;;;;;5123962;27;20229;-52
2021/05/07 08:06:17;;;;;;;0.90;0.73;;;7.60;99.90;;;;;;5133956;27;20198;-55
2021/05/07 08:08:43;;;;;;;1.10;1.00;;;8.00;99.90;;;;;;5112676;27;20231;-50
2021/05/07 08:11:10;;;;;;;1.97;0.90;;;8.20;99.90;;;;;;5112899;27;20282;-54
2021/05/07 08:13:36;;;;;;;1.27;0.70;;;8.30;99.90;;;;;;5128674;27;20219;-48
2021/05/07 08:16:03;;;;;;;1.80;0.80;;;8.20;99.90;;;;;;5109346;27;20204;-55
2021/05/07 08:18:29;;;;;;;1.00;0.80;;;8.00;99.90;;;;;;5111627;27;20188;-54
2021/05/07 08:20:55;;;;;;;1.83;1.00;;;7.90;99.90;;;;;;5118507;27;20213;-54
2021/05/07 08:23:21;;;;;;;1.00;0.60;;;7.80;99.90;;;;;;5130624;27;20212;-50
2021/05/07 08:25:48;;;;;;;4.20;0.97;;;7.70;99.90;;;;;;5144371;27;20859;-51
2021/05/07 08:28:14;;;;;;;2.33;0.80;;;7.70;99.90;;;;;;5123659;27;20215;-57
2021/05/07 08:30:41;;;;;;;2.30;0.90;;;7.80;99.90;;;;;;5115092;27;20198;-49
2021/05/07 08:33:07;;;;;;;2.00;0.80;;;8.00;99.90;;;;;;5094414;27;20208;-56
2021/05/07 08:35:33;;;;;;;1.00;0.67;;;8.10;99.90;;;;;;5130469;27;20700;-52
2021/05/07 08:37:59;;;;;;;2.17;0.60;;;8.10;99.90;;;;;;5122703;27;20201;-56
2021/05/07 08:40:26;;;;;;;0.60;0.60;;;8.10;99.90;;;;;;5121286;27;20811;-53
2021/05/07 08:42:54;;;;;;;2.50;1.00;;;8.20;99.90;;;;;;5118885;27;20216;-50
2021/05/07 08:45:21;;;;;;;1.47;0.70;;;8.40;99.90;;;;;;5117130;27;20231;-52
2021/05/07 08:47:52;;;;;;;1.37;0.60;;;8.40;99.90;;;;;;5103335;28;20216;-54
2021/05/07 08:50:18;;;;;;;0.53;0.53;;;8.30;99.90;;;;;;5116693;27;20261;-52
2021/05/07 08:52:44;;;;;;;2.97;0.83;;;8.40;99.90;;;;;;5140247;27;20677;-54
2021/05/07 08:55:11;;;;;;;0.70;0.70;;;8.50;99.90;;;;;;5140843;27;20275;-54
2021/05/07 08:57:38;;;;;;;1.33;0.40;;;8.60;99.90;;;;;;5144096;27;20195;-51
2021/05/07 09:00:08;;;;;;;1.80;0.63;;;8.80;99.90;;;;;;5112727;27;20285;-56
2021/05/07 09:02:36;;;;;;;1.37;0.80;;;8.80;99.90;;;;;;5114672;27;20229;-52
2021/05/07 09:05:03;;;;;;;1.33;0.90;;;8.80;99.90;;;;;;5112185;27;20216;-56
2021/05/07 09:07:29;;;;;;;1.03;0.70;;;8.80;99.90;;;;;;5125279;27;20320;-56
2021/05/07 09:09:58;;;;;;;0.50;0.47;;;8.90;99.90;;;;;;5134660;27;20195;-58
2021/05/07 09:12:27;;;;;;;1.60;1.00;;;9.00;99.90;;;;;;5089345;27;20230;-56
2021/05/07 09:14:54;;;;;;;3.27;1.10;;;9.10;99.90;;;;;;5108473;27;20181;-53
2021/05/07 09:17:21;;;;;;;2.70;1.00;;;9.10;99.90;;;;;;5098642;27;20232;-56
2021/05/07 09:19:48;;;;;;;3.33;0.80;;;9.10;99.90;;;;;;5090056;27;20316;-54
2021/05/07 09:22:25;;;;;;;0.73;0.70;;;9.00;99.90;;;;;;5116361;27;20192;-49
2021/05/07 09:25:07;;;;;;;2.20;0.57;;;8.90;99.90;;;;;;5128899;27;20789;-50
2021/05/07 09:27:33;;;;;;;0.97;0.43;;;8.20;99.90;;;;;;5105485;27;20921;-52
2021/05/07 09:30:00;;;;;;;1.70;0.50;;;6.80;99.90;;;;;;5110035;27;20201;-51
2021/05/07 09:32:29;;;;;;;2.43;0.70;;;;;;;;;;5105059;27;20220;-50
2021/05/07 09:35:07;;;;;;;1.70;0.50;;;5.40;99.90;;;;;;5126881;27;20199;-47
2021/05/07 09:37:35;;;;;;;0.87;0.60;;;4.90;99.90;;;;;;5122199;27;20189;-53
2021/05/07 09:40:12;;;;;;;2.63;0.67;;;4.70;99.90;;;;;;5128378;27;20196;-55
2021/05/07 09:42:39;;;;;;;3.40;1.13;;;4.70;99.90;;;;;;5125484;27;20212;-49
2021/05/07 09:45:06;;;;;;;0.73;0.70;;;4.80;99.90;;;;;;5110091;27;20202;-56
2021/05/07 09:47:32;;;;;;;2.93;1.00;;;5.00;99.90;;;;;;5113145;27;20244;-52
2021/05/07 09:50:04;;;;;;;2.70;1.30;;;5.10;99.90;;;;;;5116855;27;20533;-54
2021/05/07 09:52:30;;;;;;;2.80;1.10;;;5.30;99.90;;;;;;5115082;27;20224;-54
2021/05/07 09:54:56;;;;;;;1.43;1.30;;;5.40;99.90;;;;;;5135403;27;20268;-50
2021/05/07 09:57:23;;;;;;;1.47;1.37;;;5.60;99.90;;;;;;5117872;27;20197;-51
2021/05/07 09:59:50;;;;;;;1.63;1.53;;;5.70;99.90;;;;;;5125015;27;20559;-50
2021/05/07 10:02:16;;;;;;;3.00;1.90;;;5.90;99.90;;;;;;5109483;27;20200;-56
2021/05/07 10:04:43;;;;;;;3.50;1.60;;;6.20;99.90;;;;;;5110347;27;20201;-53
2021/05/07 10:07:10;;;;;;;4.07;1.40;;;6.50;99.90;;;;;;5096877;27;20204;-54
2021/05/07 10:09:37;;;;;;;3.70;1.70;;;6.80;99.90;;;;;;5114133;27;20197;-52
2021/05/07 10:12:05;;;;;;;2.43;1.40;;;7.20;99.90;;;;;;5118631;27;20201;-55
2021/05/07 10:14:32;;;;;;;4.63;1.63;;;7.50;99.90;;;;;;5127081;27;20224;-54
2021/05/07 10:17:08;;;;;;;2.37;1.53;;;7.70;99.90;;;;;;5132241;27;20863;-57
2021/05/07 10:19:40;;;;;;;3.90;1.43;;;7.80;99.90;;;;;;5101672;27;20280;-55
2021/05/07 10:22:08;;;;;;;2.10;1.40;;;7.80;99.90;;;;;;5132139;27;20199;-53
2021/05/07 10:24:37;;;;;;;4.53;1.20;;;7.80;99.90;;;;;;5103036;27;20213;-54
2021/05/07 10:27:14;;;;;;;1.80;0.80;;;7.70;99.90;;;;;;5116366;27;20208;-55
2021/05/07 10:29:52;;;;;;;1.03;0.80;;;7.20;99.90;;;;;;5115863;27;20185;-52
2021/05/07 10:32:29;;;;;;;1.20;0.67;;;6.70;99.90;;;;;;5106637;27;20186;-53
2021/05/07 10:34:55;;;;;;;2.07;1.30;;;6.40;99.90;;;;;;5105166;27;20268;-51
2021/05/07 10:37:21;;;;;;;0.70;0.70;;;6.30;99.90;;;;;;5111896;27;20218;-54
2021/05/07 10:39:53;;;;;;;1.67;0.93;;;6.30;99.90;;;;;;5106492;27;20192;-51
2021/05/07 10:42:20;;;;;;;1.63;1.23;;;6.40;99.90;;;;;;5127367;27;20196;-55
2021/05/07 10:44:46;;;;;;;3.70;0.83;;;6.50;99.90;;;;;;5125731;27;20192;-54
2021/05/07 10:47:14;;;;;;;2.37;0.97;;;6.60;99.90;;;;;;5114966;27;20193;-55
2021/05/07 10:49:42;;;;;;;1.23;0.60;;;6.80;99.90;;;;;;5125517;27;20205;-56
2021/05/07 10:52:10;;;;;;;1.03;0.83;;;7.00;99.90;;;;;;5106359;27;20248;-55
2021/05/07 10:54:39;;;;;;;2.23;1.03;;;7.20;99.90;;;;;;5108705;27;20192;-51
2021/05/07 10:57:17;;;;;;;1.33;0.67;;;7.40;99.90;;;;;;5134932;27;20567;-57
2021/05/07 10:59:52;;;;;;;1.07;0.70;;;7.50;99.90;;;;;;5129262;27;20201;-50
2021/05/07 11:02:18;;;;;;;0.60;0.50;;;7.70;99.90;;;;;;5120738;27;20279;-50
2021/05/07 11:04:47;;;;;;;1.97;0.57;;;8.00;99.90;;;;;;5113289;27;20223;-50
2021/05/07 11:07:13;;;;;;;0.90;0.60;;;8.20;99.90;;;;;;5109830;27;20209;-55
2021/05/07 11:09:39;;;;;;;1.57;0.60;;;8.40;99.90;;;;;;5115120;27;20714;-48
2021/05/07 11:12:09;;;;;;;0.60;0.60;;;8.50;99.90;;;;;;5121363;27;20208;-55
2021/05/07 11:14:38;;;;;;;0.43;0.43;;;8.60;99.90;;;;;;5121888;27;20189;-48
2021/05/07 11:17:04;;;;;;;1.53;0.50;;;8.70;99.90;;;;;;5120883;27;20207;-55
2021/05/07 11:19:32;;;;;;;2.93;0.87;;;8.80;99.90;;;;;;5119565;27;20308;-52
2021/05/07 11:22:01;;;;;;;3.07;0.47;;;9.10;99.90;;;;;;5115635;27;20704;-56
2021/05/07 11:24:28;;;;;;;0.93;0.53;;;9.20;99.90;;;;;;5114681;27;20214;-54
2021/05/07 11:26:55;;;;;;;0.87;0.60;;;9.30;99.90;;;;;;5130302;27;20267;-50
2021/05/07 11:29:27;;;;;;;1.33;0.60;;;9.40;99.90;;;;;;5135849;27;20315;-54
2021/05/07 11:31:53;;;;;;;1.03;0.60;;;9.40;99.90;;;;;;5118516;27;20213;-50
2021/05/07 11:34:26;;;;;;;3.60;1.10;;;9.50;99.90;;;;;;5116285;27;20219;-49
2021/05/07 11:37:00;;;;;;;1.93;0.80;;;9.60;99.90;;;;;;5117534;27;20201;-51
2021/05/07 11:39:26;;;;;;;1.43;0.73;;;9.40;99.90;;;;;;5089162;27;24053;-52
2021/05/07 11:41:53;;;;;;;2.93;1.10;;;9.20;99.90;;;;;;5129571;27;20203;-51
2021/05/07 11:44:19;;;;;;;2.30;0.90;;;9.10;99.90;;;;;;5136854;27;20202;-54
2021/05/07 11:46:55;;;;;;;2.80;1.10;;;9.00;99.90;;;;;;5132544;27;20654;-50
2021/05/07 11:49:22;;;;;;;1.93;1.00;;;8.90;99.90;;;;;;5115267;27;20219;-52
2021/05/07 11:51:49;;;;;;;1.37;0.70;;;8.90;99.90;;;;;;5114513;27;20197;-51
2021/05/07 11:54:15;;;;;;;0.87;0.80;;;8.90;99.90;;;;;;5100997;27;20581;-49
2021/05/07 11:56:41;;;;;;;2.17;1.00;;;8.90;99.90;;;;;;5090650;27;20689;-57
2021/05/07 11:59:07;;;;;;;2.13;0.70;;;8.90;99.90;;;;;;5113740;27;20300;-55
2021/05/07 12:01:35;;;;;;;2.37;1.20;;;8.90;99.90;;;;;;5110344;27;20192;-55
2021/05/07 12:04:03;;;;;;;2.80;1.23;;;8.90;99.90;;;;;;5110430;27;20220;-52
2021/05/07 12:06:29;;;;;;;4.10;1.20;;;8.90;99.90;;;;;;5100678;27;20197;-55
2021/05/07 12:09:07;;;;;;;1.27;0.80;;;8.80;99.90;;;;;;5102916;27;20224;-50
2021/05/07 12:11:34;;;;;;;1.93;1.17;;;8.80;99.90;;;;;;5103831;27;20208;-55
2021/05/07 12:14:09;;;;;;;2.00;0.90;;;8.90;99.90;;;;;;5114719;27;20216;-52
2021/05/07 12:16:35;;;;;;;2.03;1.00;;;9.00;99.90;;;;;;5112627;27;20241;-55
2021/05/07 12:19:03;;;;;;;3.50;0.90;;;9.10;99.90;;;;;;5120533;27;20196;-49
2021/05/07 12:21:39;;;;;;;2.60;0.83;;;9.20;99.90;;;;;;5092654;27;20317;-52
2021/05/07 12:24:06;;;;;;;3.60;1.20;;;9.20;99.90;;;;;;5107463;27;20277;-55
2021/05/07 12:26:32;;;;;;;0.77;0.60;;;9.20;99.90;;;;;;5109933;27;20573;-52
2021/05/07 12:29:00;;;;;;;2.97;0.97;;;9.30;99.90;;;;;;5118273;27;20227;-57
2021/05/07 12:31:30;;;;;;;4.00;1.00;;;9.30;99.90;;;;;;5123364;27;20196;-49
2021/05/07 12:33:56;;;;;;;1.07;0.70;;;9.50;99.90;;;;;;5121373;27;20212;-56
2021/05/07 12:36:24;;;;;;;3.10;1.07;;;9.90;99.90;;;;;;5122605;27;20271;-53
2021/05/07 12:38:53;;;;;;;1.47;0.87;;;10.00;99.90;;;;;;5115097;27;20816;-57
2021/05/07 12:41:22;;;;;;;4.83;1.10;;;10.10;99.90;;;;;;5116708;27;20208;-53
2021/05/07 12:43:50;;;;;;;2.17;0.77;;;10.20;99.90;;;;;;5117025;27;20229;-55
2021/05/07 12:46:17;;;;;;;1.17;0.70;;;10.10;99.90;;;;;;5141698;27;20215;-51
2021/05/07 12:48:45;;;;;;;1.37;1.03;;;10.20;99.90;;;;;;5137512;27;20583;-55
2021/05/07 12:51:11;;;;;;;2.07;0.73;;;10.20;99.90;;;;;;5114468;27;20801;-53
2021/05/07 12:53:41;;;;;;;1.90;0.90;;;10.20;99.90;;;;;;5121323;27;20222;-51
2021/05/07 12:56:08;;;;;;;1.30;0.70;;;10.40;99.90;;;;;;5118892;27;20196;-50
2021/05/07 12:58:34;;;;;;;0.73;0.63;;;10.60;99.90;;;;;;5120049;27;20569;-51